Villard, Minnesota
Current Conditions -  °F | °C
As of 5:33 PM on Friday 19 Dec 2014 (Local Time) from KGHW Reporting Station
Haze Haze  
Wind Chill: 17°   Ceiling: 600
Heat Index: 28°   Visibility: 4mi
Dew Point: 28°   Wind: 15mph
Humidity: 100%   Direction: 170°S
Pressure: 30.1"   Gusts: 20mph
Location:  45.72°N, 95.27°W
Report Text: KGHW 192333Z AUTO 17013G17KT 4SM BR OVC006 M02/M02 A3010 RMK AO2
Loading
Personal Weather Stations






























Interactive Weather Map New forecast layout! Learn more

10-Day Weather Forecast

Advertisements
Track Severe Weather on mobile